• Join FlightAware (Why Join?)
  • Login
  • US Flag 
04:21AM EDT


 

Airport Tracker/Info


-or-


 

Live Flight TrackerFlight Track Log ✈ AWE3202 ✈ 21-Aug-2013 ✈ KJAX - KDCA

Flight Track Log - Related Links

Times and Time Zones

All times are in EDT time to prevent confusion due to time zone crossing. See the AWE3202 flight status page for this flight to view local times or setup timezone preferences in your user account.

Time Position Orientation Groundspeed Altitude Reporting Facility
EDT Latitude Longitude Course Direction KTS MPH feet Rate Location/Type
06:39PM 30.5069 -81.6703 19° North 157 181 700  Level Jacksonville Center
06:39PM 30.5150 -81.6436 71° East 152 175 1,900 1,800 Climbing Jacksonville Center
06:40PM 30.5522 -81.5997 45° Northeast 232 267 3,500 2,100 Climbing Jacksonville Center
06:41PM 30.7059 -81.4429 46° Northeast  Level FlightAware Approximate
06:41PM 30.6061 -81.5458 41° Northeast 270 311 6,200  Level Jacksonville Center
06:42PM 30.7766 -81.3581 46° Northeast  Level FlightAware Approximate
06:42PM 30.6658 -81.4869 40° Northeast 280 322 9,200  Level Jacksonville Center
06:43PM 30.8500 -81.2854 90° East  Level FlightAware Approximate
06:43PM 30.7342 -81.4183 41° Northeast 316 364 11,400  Level Jacksonville Center
06:44PM 30.9443 -81.2456 19° North  Level FlightAware Approximate
06:45PM 30.8206 -81.3297 41° Northeast 344 396 14,300  Level Jacksonville Center
06:46PM 30.9056 -81.2728 30° Northeast 349 402 16,600 2,040 Climbing Jacksonville Center
06:47PM 31.0031 -81.2322 20° North 354 407 18,400 1,860 Climbing Jacksonville Center
06:48PM 31.1050 -81.2039 13° North 359 413 20,400 1,800 Climbing Jacksonville Center
06:49PM 31.2158 -81.2042 360° North 376 433 22,100 1,680 Climbing Jacksonville Center
06:50PM 31.3286 -81.2022 North 386 444 23,800 1,680 Climbing Jacksonville Center
06:51PM 31.4558 -81.2000 North 404 465 25,500 1,440 Climbing Jacksonville Center
06:52PM 31.5469 -81.1469 26° Northeast 399 459 26,700 1,440 Climbing Jacksonville Center
06:53PM 31.6544 -81.0622 34° Northeast 413 475 28,400 1,440 Climbing Jacksonville Center
06:54PM 31.7411 -80.9919 35° Northeast 419 482 29,600 1,440 Climbing Jacksonville Center
06:55PM 31.8461 -80.9042 35° Northeast 419 482 31,300 1,440 Climbing Jacksonville Center
06:56PM 31.9408 -80.8286 34° Northeast 419 482 32,500 840 Climbing Jacksonville Center
06:57PM 32.0256 -80.7608 34° Northeast 419 482 33,000 240 Climbing Jacksonville Center
06:58PM 32.1303 -80.6750 35° Northeast 419 482 33,000  Level Jacksonville Center
06:59PM 32.2189 -80.6014 35° Northeast 424 488 33,000  Level Jacksonville Center
07:00PM 32.3156 -80.5203 35° Northeast 424 488 33,000  Level Jacksonville Center
07:01PM 32.4119 -80.4392 35° Northeast 419 482 33,000  Level Jacksonville Center
07:02PM 32.5086 -80.3603 35° Northeast 419 482 33,000  Level Jacksonville Center
07:03PM 32.6050 -80.2786 36° Northeast 419 482 33,000  Level Jacksonville Center
07:04PM 32.7017 -80.1992 35° Northeast 419 482 33,000  Level Jacksonville Center
07:05PM 32.8000 -80.1147 36° Northeast 419 482 33,000  Level Jacksonville Center
07:06PM 32.8961 -80.0350 35° Northeast 419 482 33,000  Level Jacksonville Center
07:07PM 33.0033 -79.9747 25° Northeast 419 482 33,000  Level Jacksonville Center
07:08PM 33.1181 -79.9661 North 407 468 33,000  Level Jacksonville Center
07:09PM 33.2275 -80.0147 340° North 398 458 33,000  Level Jacksonville Center
07:10PM 33.3353 -80.0633 339° North 398 458 33,000  Level Jacksonville Center
07:11PM 33.4553 -80.1167 340° North 412 474 33,000  Level Jacksonville Center
07:12PM 33.5625 -80.1558 343° North 412 474 33,000  Level Jacksonville Center
07:13PM 33.6800 -80.1769 351° North 412 474 33,000  Level Jacksonville Center
07:14PM 33.8008 -80.1758 360° North 417 480 33,000  Level Jacksonville Center
07:15PM 33.9197 -80.1647 North 427 491 33,000  Level Jacksonville Center
07:16PM 34.0378 -80.1358 11° North 422 486 33,000  Level Jacksonville Center
07:17PM 34.1469 -80.0722 26° Northeast 422 486 33,000  Level Jacksonville Center
07:18PM 34.2517 -79.9936 32° Northeast 422 486 33,000  Level Jacksonville Center
07:19PM 34.3586 -79.9244 28° Northeast 427 491 33,000  Level Jacksonville Center
07:20PM 34.5189 -79.8089 31° Northeast 438 504 33,000  Level Washington Center
07:21PM 34.6256 -79.7411 28° Northeast 438 504 33,000  Level Washington Center
07:22PM 34.7325 -79.6658 30° Northeast 438 504 33,000  Level Washington Center
07:23PM 34.8394 -79.5878 31° Northeast 438 504 33,000  Level Washington Center
07:24PM 34.9444 -79.5092 32° Northeast 438 504 33,000  Level Washington Center
07:25PM 35.0514 -79.4281 32° Northeast 443 510 33,000  Level Washington Center
07:26PM 35.1561 -79.3442 33° Northeast 443 510 33,000  Level Washington Center
07:27PM 35.2611 -79.2575 34° Northeast 448 516 33,000  Level Washington Center
07:28PM 35.3661 -79.1706 34° Northeast 461 531 33,000  Level Washington Center
07:29PM 35.4603 -79.0908 35° Northeast 455 524 33,000  Level Washington Center
07:30PM 35.5736 -78.9961 34° Northeast 450 518 33,000 -660 Level Washington Center
07:31PM 35.6675 -78.9208 33° Northeast 450 518 31,700 -1,500 Descending Washington Center
07:32PM 35.7764 -78.8281 35° Northeast 456 525 30,000 -1,680 Descending Washington Center
07:33PM 35.8831 -78.7375 35° Northeast 456 525 28,400 -1,500 Descending Washington Center
07:34PM 35.9897 -78.6469 34° Northeast 456 525 27,000 -720 Descending Washington Center
07:35PM 36.0881 -78.5606 35° Northeast 451 519 27,000  Level Washington Center
07:36PM 36.1903 -78.4744 34° Northeast 451 519 27,000  Level Washington Center
07:37PM 36.2947 -78.3856 34° Northeast 451 519 27,000  Level Washington Center
07:38PM 36.3967 -78.2964 35° Northeast 451 519 27,000 -300 Level Washington Center
07:39PM 36.4967 -78.2094 35° Northeast 451 519 26,500 -1,200 Descending Washington Center
07:40PM 36.6031 -78.1119 36° Northeast 446 513 24,700 -1,680 Descending Washington Center
07:41PM 36.7031 -78.0272 34° Northeast 431 496 23,300 -1,260 Descending Washington Center
07:42PM 36.8006 -77.9447 34° Northeast 426 490 22,200 -660 Descending Washington Center
07:43PM 36.8942 -77.8592 36° Northeast 426 490 22,000 -120 Descending Washington Center
07:44PM 36.9872 -77.7786 35° Northeast 421 484 22,000  Level Washington Center
07:45PM 37.0867 -77.7139 27° Northeast 410 472 22,000  Level Washington Center
07:46PM 37.1958 -77.6647 20° North 398 458 22,000  Level Washington Center
07:47PM 37.3011 -77.6178 20° North 398 458 22,000  Level Washington Center
07:48PM 37.4083 -77.5683 20° North 403 464 22,000  Level Washington Center
07:49PM 37.5175 -77.5189 20° North 403 464 22,000  Level Washington Center
07:50PM 37.6225 -77.4692 21° North 403 464 22,000 -300 Level Washington Center
07:51PM 37.7275 -77.4244 19° North 403 464 21,400 -1,380 Descending Washington Center
07:52PM 37.8325 -77.3822 18° North 398 458 19,300 -1,980 Descending Washington Center
07:53PM 37.9272 -77.3267 25° Northeast 386 444 17,500 -2,100 Descending Washington Center
07:54PM 38.0236 -77.2789 21° North 374 430 15,200 -2,220 Descending Washington Center
07:55PM 38.1075 -77.2464 17° North 361 415 13,100 -2,160 Descending Washington Center
07:56PM 38.2000 -77.2036 20° North 356 410 10,900 -1,560 Descending Washington Center
07:57PM 38.2922 -77.1553 22° Northeast 333 383 10,000 -480 Descending Washington Center
07:58PM 38.3739 -77.1411 North 327 376 10,000  Level Washington Center
07:59PM 38.4556 -77.1083 17° North 316 364 10,000  Level Washington Center
08:00PM 38.5372 -77.0808 15° North 311 358 10,000  Level Washington Center
08:01PM 38.6253 -77.0453 18° North 311 358 10,000  Level Washington Center
08:02PM 38.7153 -77.0072 18° North 323 372 10,000  Level Washington Center
08:03PM 38.8011 -76.9928 North 318 366 10,000 -360 Level Washington Center
08:04PM 38.8681 -76.9647 18° North 282 325 9,300 -540 Descending Washington Center
08:05PM 38.9306 -76.9578 North 246 283 9,000 -180 Descending Washington Center
08:06PM 38.9781 -77.0069 321° Northwest 204 235 9,000 -960 Level Washington Center
08:07PM 39.0500 -77.0667 327° Northwest 213 245 6,900 -1,500 Descending Potomac TRACON
08:08PM 39.0833 -77.1167 311° West 208 239 5,700 -1,020 Descending Potomac TRACON
08:09PM 39.1000 -77.1833 288° West 194 223 4,900 -420 Descending Potomac TRACON
08:10PM 39.0500 -77.2167 207° Southwest 194 223 4,900 -300 Level Potomac TRACON
08:11PM 39.0167 -77.2167 180° South 180 207 4,300 -840 Descending Potomac TRACON
08:12PM 38.9833 -77.1667 131° Southeast 175 201 3,300 -960 Descending Potomac TRACON
08:13PM 38.9333 -77.1333 153° Southeast 172 198 2,400 -960 Descending Potomac TRACON
08:14PM 38.9000 -77.1000 142° Southeast 153 176 1,400 -900 Descending Potomac TRACON
08:15PM 38.8833 -77.0500 113° Southeast 128 147 700 -720 Descending Potomac TRACON